Time;durP1;ratioP1;P1;durP2;ratioP2;P2;SDS_P1;SDS_P2;PMS_P1;PMS_P2;Temp;Humidity;BMP_temperature;BMP_pressure;BME280_temperature;BME280_humidity;BME280_pressure;Samples;Min_cycle;Max_cycle;Signal;HPM_P1;HPM_P2
2022/01/19 00:00:48;;;;;;;12.53;7.10;;;6.90;99.90;;;;;;6183943;23;20647;-88
2022/01/19 00:03:14;;;;;;;7.47;4.33;;;6.90;99.90;;;;;;6183681;23;20565;-88
2022/01/19 00:05:40;;;;;;;7.47;6.70;;;6.90;99.90;;;;;;6208342;23;20158;-88
2022/01/19 00:08:06;;;;;;;6.43;5.03;;;6.90;99.90;;;;;;6209360;23;20532;-88
2022/01/19 00:10:32;;;;;;;7.70;7.07;;;6.90;99.90;;;;;;6158375;23;20201;-88
2022/01/19 00:12:59;;;;;;;5.27;4.87;;;6.90;99.90;;;;;;6209849;23;20721;-88
2022/01/19 00:15:26;;;;;;;10.50;7.07;;;6.90;99.90;;;;;;6207861;23;20204;-88
2022/01/19 00:17:56;;;;;;;8.80;4.13;;;6.90;99.90;;;;;;6208551;23;20631;-88
2022/01/19 00:20:22;;;;;;;6.60;4.00;;;6.90;99.90;;;;;;6184934;23;20172;-87
2022/01/19 00:22:49;;;;;;;15.93;4.27;;;6.90;99.90;;;;;;6183236;23;20710;-87
2022/01/19 00:25:15;;;;;;;15.80;8.03;;;6.80;99.90;;;;;;6183722;23;20233;-88
2022/01/19 00:27:41;;;;;;;10.67;7.77;;;6.80;99.90;;;;;;6208180;23;20268;-88
2022/01/19 00:30:07;;;;;;;9.27;6.90;;;6.90;99.90;;;;;;6183626;23;20293;-88
2022/01/19 00:32:34;;;;;;;14.70;5.27;;;6.90;99.90;;;;;;6184071;23;20523;-88
2022/01/19 00:35:00;;;;;;;13.57;8.20;;;6.80;99.90;;;;;;6183654;23;20216;-88
2022/01/19 00:37:26;;;;;;;8.00;5.30;;;6.80;99.90;;;;;;6207795;23;20542;-87
2022/01/19 00:39:54;;;;;;;20.57;10.33;;;6.70;99.90;;;;;;6168081;23;20206;-88
2022/01/19 00:42:20;;;;;;;11.57;6.63;;;6.80;99.90;;;;;;6174590;23;20610;-88
2022/01/19 00:44:46;;;;;;;9.13;4.57;;;6.70;99.90;;;;;;6182840;23;20209;-87
2022/01/19 00:47:12;;;;;;;5.80;5.30;;;6.70;99.90;;;;;;6181936;23;20612;-88
2022/01/19 00:49:38;;;;;;;4.93;4.27;;;6.70;99.90;;;;;;6158365;23;20368;-88
2022/01/19 00:52:05;;;;;;;8.73;5.70;;;6.70;99.90;;;;;;6158098;23;20697;-87
2022/01/19 00:54:31;;;;;;;15.27;6.63;;;6.70;99.90;;;;;;6182929;23;20198;-88
2022/01/19 00:56:56;;;;;;;5.30;4.10;;;6.70;99.90;;;;;;6182694;23;20225;-88
2022/01/19 00:59:22;;;;;;;7.60;5.60;;;6.60;99.90;;;;;;6159265;23;20236;-88
2022/01/19 01:01:48;;;;;;;9.97;6.20;;;6.70;99.90;;;;;;6183074;23;20206;-88
2022/01/19 01:04:14;;;;;;;17.87;8.40;;;6.60;99.90;;;;;;6183639;23;20624;-88
2022/01/19 01:06:40;;;;;;;12.20;6.17;;;6.70;99.90;;;;;;6158755;23;20220;-88
2022/01/19 01:09:06;;;;;;;9.83;8.83;;;6.70;99.90;;;;;;6183897;23;20202;-88
2022/01/19 01:11:37;;;;;;;8.67;6.90;;;6.70;99.90;;;;;;6160276;23;20162;-88
2022/01/19 01:16:33;;;;;;;11.27;5.57;;;6.60;99.90;;;;;;6208412;23;20281;-88
2022/01/19 01:19:00;;;;;;;21.17;7.00;;;6.70;99.90;;;;;;6184245;23;20643;-88
2022/01/19 01:21:25;;;;;;;9.30;5.67;;;6.60;99.90;;;;;;6183427;23;20193;-88
2022/01/19 01:23:51;;;;;;;10.20;6.50;;;6.60;99.90;;;;;;6158783;23;20169;-88
2022/01/19 01:26:17;;;;;;;7.97;6.17;;;6.60;99.90;;;;;;6159157;23;20158;-88
2022/01/19 01:28:43;;;;;;;10.90;8.27;;;6.60;99.90;;;;;;6158463;23;20193;-87
2022/01/19 01:31:09;;;;;;;8.83;5.00;;;6.60;99.90;;;;;;6158969;23;20194;-88
2022/01/19 01:33:36;;;;;;;15.33;7.47;;;6.50;99.90;;;;;;6183385;23;20194;-88
2022/01/19 01:36:03;;;;;;;14.37;7.07;;;6.50;99.90;;;;;;6183389;23;20344;-88
2022/01/19 01:38:29;;;;;;;6.83;6.13;;;6.50;99.90;;;;;;6208566;23;20186;-87
2022/01/19 01:40:54;;;;;;;8.60;6.63;;;6.60;99.90;;;;;;6183071;23;20190;-88
2022/01/19 01:43:21;;;;;;;10.60;8.40;;;6.50;99.90;;;;;;6158438;23;20201;-88
2022/01/19 01:45:52;;;;;;;12.30;7.33;;;6.50;99.90;;;;;;6208090;23;20896;-88
2022/01/19 01:48:20;;;;;;;5.20;4.60;;;6.50;99.90;;;;;;6184768;23;20190;-88
2022/01/19 01:53:34;;;;;;;12.70;7.80;;;6.50;99.90;;;;;;6188454;23;20207;-88
2022/01/19 01:56:08;;;;;;;4.57;4.23;;;6.40;99.90;;;;;;6208979;23;20189;-88
2022/01/19 01:58:41;;;;;;;17.27;5.77;;;6.40;99.90;;;;;;6208245;23;20525;-88
2022/01/19 02:01:08;;;;;;;9.83;5.60;;;6.40;99.90;;;;;;6208518;23;20201;-88
2022/01/19 02:03:40;;;;;;;9.13;6.40;;;6.40;99.90;;;;;;6208248;23;20260;-88
2022/01/19 02:08:45;;;;;;;13.07;6.20;;;6.40;99.90;;;;;;6209681;23;20147;-88
2022/01/19 02:21:57;;;;;;;9.83;7.30;;;6.20;99.90;;;;;;6187484;23;20198;-87
2022/01/19 02:24:27;;;;;;;7.20;5.13;;;6.20;99.90;;;;;;6186537;23;20201;-88
2022/01/19 02:27:03;;;;;;;8.77;6.33;;;6.20;99.90;;;;;;6160034;23;20461;-88
2022/01/19 02:40:30;;;;;;;4.57;4.23;;;6.00;99.90;;;;;;6209139;23;20221;-88
2022/01/19 02:50:36;;;;;;;5.80;4.60;;;6.00;99.90;;;;;;6208062;23;20177;-88
2022/01/19 02:53:02;;;;;;;6.00;4.00;;;6.00;99.90;;;;;;6183367;23;20253;-88
2022/01/19 02:55:34;;;;;;;6.60;5.97;;;6.10;99.90;;;;;;6209131;23;20197;-88
2022/01/19 02:57:59;;;;;;;6.27;2.87;;;6.10;99.90;;;;;;6207606;23;20580;-88
2022/01/19 03:11:11;;;;;;;8.83;6.33;;;6.20;99.90;;;;;;6184610;23;20146;-88
2022/01/19 03:13:37;;;;;;;14.50;6.10;;;6.10;99.90;;;;;;6207691;23;20190;-88
2022/01/19 03:16:02;;;;;;;15.33;5.37;;;6.20;99.90;;;;;;6158029;23;20696;-88
2022/01/19 03:18:28;;;;;;;7.80;5.67;;;6.20;99.90;;;;;;6158266;23;20332;-88
2022/01/19 03:20:54;;;;;;;5.57;4.57;;;6.20;99.90;;;;;;6183335;23;20545;-88
2022/01/19 03:23:20;;;;;;;12.27;4.77;;;6.20;99.90;;;;;;6183320;23;20489;-88
2022/01/19 03:25:50;;;;;;;11.07;4.37;;;6.20;99.90;;;;;;6183101;23;20202;-89
2022/01/19 03:28:17;;;;;;;4.83;3.10;;;6.20;99.90;;;;;;6183200;23;20197;-88
2022/01/19 03:30:44;;;;;;;9.70;5.37;;;6.20;99.90;;;;;;6183470;23;20194;-88
2022/01/19 03:33:11;;;;;;;6.40;5.80;;;6.20;99.90;;;;;;6183318;23;20257;-88
2022/01/19 03:35:38;;;;;;;5.53;5.03;;;6.20;99.90;;;;;;6208105;23;20241;-88
2022/01/19 03:38:08;;;;;;;15.10;9.43;;;6.20;99.90;;;;;;6159111;23;20245;-88
2022/01/19 03:40:34;;;;;;;11.83;8.90;;;6.20;99.90;;;;;;6183528;23;20198;-89
2022/01/19 03:43:01;;;;;;;6.47;4.43;;;6.30;99.90;;;;;;6207726;23;20209;-87
2022/01/19 03:45:27;;;;;;;7.07;6.27;;;6.30;99.90;;;;;;6157744;23;20209;-88
2022/01/19 03:48:10;;;;;;;12.83;6.47;;;6.30;99.90;;;;;;6207642;23;20162;-88
2022/01/19 03:50:36;;;;;;;11.73;6.23;;;6.30;99.90;;;;;;6165661;23;20474;-87
2022/01/19 03:53:02;;;;;;;9.80;5.23;;;6.30;99.90;;;;;;6158204;23;20171;-88
2022/01/19 03:55:28;;;;;;;11.73;5.70;;;6.30;99.90;;;;;;6157753;23;20198;-88
2022/01/19 03:57:54;;;;;;;15.53;6.03;;;6.30;99.90;;;;;;6207496;23;20213;-87
2022/01/19 04:00:20;;;;;;;9.60;6.40;;;6.40;99.90;;;;;;6207765;23;20200;-88
2022/01/19 04:02:50;;;;;;;6.03;5.47;;;6.40;99.90;;;;;;6207784;23;20242;-88
2022/01/19 04:05:22;;;;;;;13.17;4.27;;;6.40;99.90;;;;;;6208167;23;20189;-88
2022/01/19 04:07:48;;;;;;;8.23;6.10;;;6.40;99.90;;;;;;6207555;23;20201;-87
2022/01/19 04:10:14;;;;;;;7.20;6.43;;;6.40;99.90;;;;;;6183923;23;20190;-88
2022/01/19 04:12:47;;;;;;;16.63;7.37;;;6.40;99.90;;;;;;6184594;23;20205;-88
2022/01/19 04:15:15;;;;;;;12.00;5.97;;;6.50;99.90;;;;;;6185492;23;20631;-88
2022/01/19 04:17:48;;;;;;;16.00;6.80;;;6.50;99.90;;;;;;6208789;23;20269;-88
2022/01/19 04:20:14;;;;;;;11.83;7.10;;;6.40;99.90;;;;;;6186318;23;20651;-88
2022/01/19 04:22:40;;;;;;;22.50;10.03;;;6.40;99.90;;;;;;6208842;23;20228;-88
2022/01/19 04:25:06;;;;;;;19.67;8.00;;;6.50;99.90;;;;;;6159704;23;20202;-88
2022/01/19 04:27:32;;;;;;;18.67;9.00;;;6.50;99.90;;;;;;6159853;23;20558;-88
2022/01/19 04:30:06;;;;;;;11.63;7.07;;;6.50;99.90;;;;;;6160220;23;20200;-88
2022/01/19 04:32:49;;;;;;;17.33;6.77;;;6.50;99.90;;;;;;6210292;23;20142;-88
2022/01/19 04:35:20;;;;;;;16.30;7.50;;;6.50;99.90;;;;;;6210787;23;20277;-88
2022/01/19 04:54:31;;;;;;;13.60;6.53;;;6.50;99.90;;;;;;6209302;23;20197;-88
2022/01/19 05:13:24;;;;;;;14.80;6.40;;;6.60;99.90;;;;;;6210669;23;20534;-88
2022/01/19 05:15:32;;;;;;;10.67;9.00;;;6.60;99.90;;;;;;6210197;23;20228;-88
2022/01/19 05:17:58;;;;;;;14.17;7.13;;;6.60;99.90;;;;;;6183942;23;20201;-88
2022/01/19 05:20:24;;;;;;;13.93;9.53;;;6.60;99.90;;;;;;6183958;23;20169;-88
2022/01/19 05:22:50;;;;;;;16.23;7.93;;;6.60;99.90;;;;;;6184016;23;20277;-88
2022/01/19 05:25:16;;;;;;;16.83;7.33;;;6.60;99.90;;;;;;6159146;23;20208;-88
2022/01/19 05:27:41;;;;;;;12.63;6.63;;;6.60;99.90;;;;;;6208502;23;20197;-87
2022/01/19 05:30:08;;;;;;;7.20;5.47;;;6.50;99.90;;;;;;6208687;23;20198;-88
2022/01/19 05:32:33;;;;;;;18.00;10.27;;;6.50;99.90;;;;;;6184419;23;20584;-88
2022/01/19 05:34:59;;;;;;;7.47;6.83;;;6.50;99.90;;;;;;6208365;23;20324;-88
2022/01/19 05:37:25;;;;;;;17.97;6.63;;;6.50;99.90;;;;;;6183510;23;20245;-87
2022/01/19 05:39:51;;;;;;;16.70;13.27;;;6.50;99.90;;;;;;6158263;23;20197;-88
2022/01/19 05:42:17;;;;;;;27.90;8.27;;;6.50;99.90;;;;;;6183532;23;20719;-88
2022/01/19 05:44:44;;;;;;;16.17;7.83;;;6.50;99.90;;;;;;6157860;23;20198;-88
2022/01/19 05:47:11;;;;;;;14.10;7.77;;;6.50;99.90;;;;;;6209194;23;20245;-89
2022/01/19 05:49:38;;;;;;;16.43;5.47;;;6.40;99.90;;;;;;6169117;23;20284;-88
2022/01/19 05:52:05;;;;;;;24.03;7.40;;;6.40;99.90;;;;;;6183771;23;20631;-87
2022/01/19 05:54:31;;;;;;;7.83;4.50;;;6.40;99.90;;;;;;6183583;23;20201;-88
2022/01/19 05:56:58;;;;;;;27.00;14.53;;;6.40;99.90;;;;;;6183722;23;20202;-88
2022/01/19 05:59:24;;;;;;;16.77;12.23;;;6.40;99.90;;;;;;6160534;23;20158;-88
2022/01/19 06:01:50;;;;;;;17.80;10.63;;;6.40;99.90;;;;;;6183616;23;20666;-88
2022/01/19 06:04:16;;;;;;;11.30;8.10;;;6.30;99.90;;;;;;6208868;23;20206;-88
2022/01/19 06:06:42;;;;;;;18.53;8.67;;;6.30;99.90;;;;;;6159160;23;20201;-88
2022/01/19 06:09:32;;;;;;;18.40;7.87;;;6.30;99.90;;;;;;6158495;23;20252;-88
2022/01/19 06:11:53;;;;;;;11.33;6.67;;;6.30;99.90;;;;;;6187186;23;20216;-87
2022/01/19 06:14:19;;;;;;;12.50;7.17;;;6.20;99.90;;;;;;6159686;23;20163;-88
2022/01/19 06:16:45;;;;;;;20.23;8.73;;;6.20;99.90;;;;;;6158802;23;20276;-88
2022/01/19 06:19:11;;;;;;;24.27;9.70;;;6.20;99.90;;;;;;6183200;23;20301;-88
2022/01/19 06:21:37;;;;;;;17.10;6.77;;;6.30;99.90;;;;;;6183757;23;20193;-88
2022/01/19 06:24:02;;;;;;;8.43;6.33;;;6.20;99.90;;;;;;6158413;23;20240;-88
2022/01/19 06:26:28;;;;;;;12.10;7.77;;;6.20;99.90;;;;;;6159311;23;20212;-87
2022/01/19 06:28:54;;;;;;;7.63;6.87;;;6.20;99.90;;;;;;6158642;23;20277;-87
2022/01/19 06:31:29;;;;;;;7.27;5.37;;;6.20;99.90;;;;;;6158499;23;20204;-88
2022/01/19 06:33:54;;;;;;;15.00;6.23;;;6.20;99.90;;;;;;6185290;23;20276;-88
2022/01/19 06:36:20;;;;;;;8.37;5.00;;;6.20;99.90;;;;;;6158520;23;20252;-86
2022/01/19 06:38:46;;;;;;;17.20;9.83;;;6.20;99.90;;;;;;6168791;23;20517;-89
2022/01/19 06:41:12;;;;;;;11.43;6.30;;;6.30;99.90;;;;;;6184068;23;20803;-90
2022/01/19 06:43:38;;;;;;;9.90;6.27;;;6.30;99.90;;;;;;6157785;23;20214;-88
2022/01/19 06:46:04;;;;;;;8.97;6.07;;;6.30;99.90;;;;;;6183653;23;20229;-89
2022/01/19 06:48:30;;;;;;;14.93;8.60;;;6.30;99.90;;;;;;6183534;23;20209;-89
2022/01/19 06:50:56;;;;;;;11.47;6.27;;;6.30;99.90;;;;;;6183972;23;20193;-88
2022/01/19 06:53:22;;;;;;;29.03;8.00;;;6.20;99.90;;;;;;6184138;23;20166;-89
2022/01/19 06:55:48;;;;;;;6.53;4.77;;;6.20;99.90;;;;;;6158246;23;20208;-88
2022/01/19 06:58:13;;;;;;;7.00;4.20;;;6.20;99.90;;;;;;6158463;23;20205;-88
2022/01/19 07:00:39;;;;;;;8.03;7.10;;;6.20;99.90;;;;;;6158730;23;20260;-89
2022/01/19 07:03:06;;;;;;;11.37;6.43;;;6.20;99.90;;;;;;6183342;23;20499;-89
2022/01/19 07:05:31;;;;;;;9.00;5.77;;;6.10;99.90;;;;;;6184224;23;20174;-89
2022/01/19 07:07:57;;;;;;;24.50;7.80;;;6.20;99.90;;;;;;6159057;23;20201;-89
2022/01/19 07:10:24;;;;;;;13.10;5.90;;;6.20;99.90;;;;;;6158646;23;20228;-89
2022/01/19 07:12:51;;;;;;;16.43;8.90;;;6.20;99.90;;;;;;6158785;23;20254;-89
2022/01/19 07:15:17;;;;;;;8.47;5.83;;;6.20;99.90;;;;;;6182169;23;20194;-90
2022/01/19 07:17:42;;;;;;;10.53;6.57;;;6.20;99.90;;;;;;6158758;23;20189;-89
2022/01/19 07:20:09;;;;;;;10.77;5.17;;;6.20;99.90;;;;;;6159165;23;20154;-89
2022/01/19 07:22:34;;;;;;;13.93;9.37;;;6.20;99.90;;;;;;6158394;23;20217;-89
2022/01/19 07:25:04;;;;;;;19.77;7.50;;;6.20;99.90;;;;;;6183370;23;20232;-89
2022/01/19 07:27:30;;;;;;;11.90;6.87;;;6.30;99.90;;;;;;6208750;23;20243;-88
2022/01/19 07:29:55;;;;;;;12.90;9.80;;;6.30;99.90;;;;;;6158389;23;20202;-88
2022/01/19 07:32:23;;;;;;;18.63;12.73;;;6.30;99.90;;;;;;6159563;23;20464;-88
2022/01/19 07:34:49;;;;;;;10.00;7.03;;;6.30;99.90;;;;;;6158649;23;20259;-89
2022/01/19 07:37:14;;;;;;;21.77;8.03;;;6.30;99.90;;;;;;6158192;23;20209;-89
2022/01/19 07:39:40;;;;;;;12.80;7.23;;;6.30;99.90;;;;;;6158491;23;20280;-89
2022/01/19 07:42:06;;;;;;;17.00;7.70;;;6.30;99.90;;;;;;6157994;23;20276;-92
2022/01/19 07:44:32;;;;;;;16.30;7.87;;;6.40;99.90;;;;;;6160854;23;20205;-90
2022/01/19 07:46:58;;;;;;;8.37;7.47;;;6.40;99.90;;;;;;6160333;23;20212;-90
2022/01/19 07:49:24;;;;;;;14.37;8.93;;;6.40;99.90;;;;;;6185400;23;20209;-90
2022/01/19 07:51:50;;;;;;;18.53;8.90;;;6.40;99.90;;;;;;6160625;23;20566;-90
2022/01/19 07:54:15;;;;;;;13.53;9.97;;;6.40;99.90;;;;;;6159923;23;20251;-91
2022/01/19 07:56:41;;;;;;;12.03;8.30;;;6.50;99.90;;;;;;6160561;23;20166;-92
2022/01/19 07:59:07;;;;;;;11.30;7.17;;;6.50;99.90;;;;;;6185391;23;20162;-90
2022/01/19 08:01:32;;;;;;;21.50;11.90;;;6.50;99.90;;;;;;6184726;23;20194;-91
2022/01/19 08:03:59;;;;;;;14.20;9.93;;;6.50;99.90;;;;;;6185044;23;20197;-90
2022/01/19 08:06:25;;;;;;;6.43;5.83;;;6.50;99.90;;;;;;6184498;23;20193;-91
2022/01/19 08:08:51;;;;;;;18.73;9.97;;;6.60;99.90;;;;;;6160414;23;20253;-91
2022/01/19 08:11:17;;;;;;;2.23;2.10;;;6.60;99.90;;;;;;6210370;23;20185;-91
2022/01/19 08:13:43;;;;;;;12.33;8.73;;;6.60;99.90;;;;;;6185345;23;20206;-91
2022/01/19 08:16:08;;;;;;;26.23;8.90;;;6.60;99.90;;;;;;6185347;23;20243;-91
2022/01/19 08:18:34;;;;;;;13.43;10.50;;;6.60;99.90;;;;;;6184865;23;20237;-93
2022/01/19 08:21:00;;;;;;;7.67;5.47;;;6.60;99.90;;;;;;6160508;23;20198;-91
2022/01/19 08:23:26;;;;;;;8.23;6.47;;;6.60;99.90;;;;;;6185157;23;20196;-92
2022/01/19 08:25:52;;;;;;;5.23;4.60;;;6.60;99.90;;;;;;6160283;23;20205;-92
2022/01/19 08:28:18;;;;;;;24.40;13.27;;;6.60;99.90;;;;;;6159796;23;20194;-91
2022/01/19 08:30:44;;;;;;;16.37;7.27;;;6.70;99.90;;;;;;6159681;23;20213;-91
2022/01/19 08:33:10;;;;;;;15.53;8.13;;;6.70;99.90;;;;;;6185518;23;20602;-89
2022/01/19 08:35:37;;;;;;;16.40;6.33;;;6.80;99.90;;;;;;6184242;23;20162;-90
2022/01/19 08:38:03;;;;;;;14.03;8.67;;;6.80;99.90;;;;;;6210157;23;20209;-90
2022/01/19 08:40:30;;;;;;;6.17;5.53;;;6.80;99.90;;;;;;6159422;23;21000;-90
2022/01/19 08:42:56;;;;;;;12.20;7.90;;;6.80;99.90;;;;;;6184039;23;20651;-90
2022/01/19 08:45:23;;;;;;;14.70;8.20;;;6.80;99.90;;;;;;6184177;23;20259;-90
2022/01/19 08:47:49;;;;;;;11.57;6.43;;;6.80;99.90;;;;;;6183707;23;20249;-89
2022/01/19 08:50:15;;;;;;;6.97;6.33;;;6.80;99.90;;;;;;6184537;23;20951;-89
2022/01/19 08:52:45;;;;;;;7.90;5.87;;;6.80;99.90;;;;;;6210249;23;20198;-88
2022/01/19 08:55:12;;;;;;;22.23;9.23;;;6.80;99.90;;;;;;6208943;23;20620;-88
2022/01/19 08:57:38;;;;;;;6.50;5.93;;;6.80;99.90;;;;;;6183942;23;20642;-90
2022/01/19 09:00:08;;;;;;;14.00;6.83;;;6.90;99.90;;;;;;6184251;23;20718;-91
2022/01/19 09:02:34;;;;;;;10.40;6.13;;;6.90;99.90;;;;;;6209435;23;20226;-91
2022/01/19 09:05:02;;;;;;;16.30;10.00;;;6.90;99.90;;;;;;6185290;23;20178;-91
2022/01/19 09:07:28;;;;;;;12.23;9.97;;;6.90;99.90;;;;;;6184035;23;20194;-91
2022/01/19 09:09:54;;;;;;;16.97;10.40;;;7.00;99.90;;;;;;6159687;23;20671;-91
2022/01/19 09:12:20;;;;;;;22.73;7.97;;;7.00;99.90;;;;;;6183866;23;20198;-91
2022/01/19 09:14:46;;;;;;;21.47;7.30;;;7.00;99.90;;;;;;6184275;23;20523;-91
2022/01/19 09:17:12;;;;;;;8.60;7.80;;;7.10;99.90;;;;;;6160161;23;20186;-91
2022/01/19 09:19:39;;;;;;;6.97;6.23;;;7.10;99.90;;;;;;6159024;23;20197;-91
2022/01/19 09:22:06;;;;;;;9.57;6.90;;;7.20;99.90;;;;;;6184334;23;20541;-91
2022/01/19 09:24:34;;;;;;;13.57;8.37;;;7.20;99.90;;;;;;6184189;23;20200;-90
2022/01/19 09:27:00;;;;;;;11.10;6.30;;;7.30;99.90;;;;;;6159784;23;20224;-91
2022/01/19 09:29:26;;;;;;;11.73;7.73;;;7.30;99.90;;;;;;6184643;23;20528;-90
2022/01/19 09:31:54;;;;;;;9.67;8.13;;;7.30;99.90;;;;;;6209205;23;20542;-90
2022/01/19 09:34:21;;;;;;;15.47;9.60;;;7.40;99.90;;;;;;6160671;23;20196;-89
2022/01/19 09:36:48;;;;;;;12.03;7.67;;;7.40;99.90;;;;;;6209098;23;20635;-90
2022/01/19 09:39:17;;;;;;;7.47;6.70;;;7.40;99.90;;;;;;6208651;23;20190;-91
2022/01/19 09:41:43;;;;;;;6.63;6.10;;;7.40;99.90;;;;;;6209125;23;20168;-91
2022/01/19 09:44:09;;;;;;;18.53;11.00;;;7.40;99.90;;;;;;6159862;23;20261;-90
2022/01/19 09:46:36;;;;;;;8.23;7.40;;;7.40;99.90;;;;;;6183880;23;20236;-92
2022/01/19 09:49:05;;;;;;;6.63;4.90;;;7.50;99.90;;;;;;6209697;23;20954;-92
2022/01/19 09:51:32;;;;;;;12.73;7.87;;;7.50;99.90;;;;;;6209728;23;20220;-93
2022/01/19 09:53:59;;;;;;;11.27;6.67;;;7.50;99.90;;;;;;6209294;23;20194;-93
2022/01/19 09:56:25;;;;;;;8.67;7.00;;;7.50;99.90;;;;;;6184305;23;20158;-93
2022/01/19 09:58:52;;;;;;;4.60;3.13;;;7.60;99.90;;;;;;6184104;23;20671;-93
2022/01/19 10:01:22;;;;;;;13.93;8.30;;;7.60;99.90;;;;;;6183634;23;20198;-94
2022/01/19 10:03:48;;;;;;;14.90;9.33;;;7.70;99.90;;;;;;6159490;23;20635;-93
2022/01/19 10:06:19;;;;;;;8.17;6.53;;;7.70;99.90;;;;;;6208306;23;20627;-92
2022/01/19 10:08:51;;;;;;;9.33;5.93;;;7.80;99.90;;;;;;6208696;23;20154;-92
2022/01/19 10:16:58;;;;;;;10.60;7.47;;;7.80;99.90;;;;;;6209238;23;20750;-92
2022/01/19 10:17:06;;;;;;;12.10;5.83;;;7.90;99.90;;;;;;6188223;23;20174;-92
2022/01/19 10:19:48;;;;;;;9.97;8.40;;;7.80;99.90;;;;;;6208233;23;20201;-92
2022/01/19 10:22:14;;;;;;;14.13;8.77;;;7.80;99.90;;;;;;6208358;23;20189;-93
2022/01/19 10:24:53;;;;;;;7.23;5.60;;;7.80;99.90;;;;;;6208376;23;20538;-93
2022/01/19 10:27:31;;;;;;;5.50;4.13;;;7.80;99.90;;;;;;6208133;23;20197;-93
2022/01/19 10:30:02;;;;;;;10.37;7.90;;;7.80;99.90;;;;;;6208433;23;20202;-92
2022/01/19 10:32:33;;;;;;;13.93;9.97;;;7.80;99.90;;;;;;6208758;23;20236;-92
2022/01/19 10:35:12;;;;;;;10.30;9.27;;;7.80;99.90;;;;;;6208030;23;20201;-92
2022/01/19 10:37:37;;;;;;;14.83;6.93;;;7.90;99.90;;;;;;6210701;23;20202;-94
2022/01/19 10:40:05;;;;;;;11.80;7.83;;;7.80;99.90;;;;;;6158658;23;20705;-93
2022/01/19 10:42:32;;;;;;;10.60;6.20;;;8.00;99.90;;;;;;6184098;23;20190;-93
2022/01/19 10:45:01;;;;;;;11.80;8.37;;;8.10;99.90;;;;;;6158964;23;20645;-93
2022/01/19 10:47:50;;;;;;;10.90;4.90;;;8.20;99.90;;;;;;6209577;23;20227;-93
2022/01/19 10:50:30;;;;;;;24.70;7.60;;;8.40;99.90;;;;;;6211256;23;20273;-92
2022/01/19 10:52:58;;;;;;;4.03;3.63;;;8.70;99.90;;;;;;6208548;23;20233;-92
2022/01/19 10:55:27;;;;;;;12.87;4.47;;;9.00;99.90;;;;;;6208148;23;20212;-92
2022/01/19 10:57:54;;;;;;;9.07;3.87;;;9.00;99.90;;;;;;6208474;23;20210;-92
2022/01/19 11:00:20;;;;;;;2.53;2.27;;;9.20;99.90;;;;;;6184039;23;20193;-93
2022/01/19 11:02:47;;;;;;;3.37;2.20;;;9.20;99.90;;;;;;6209244;23;20158;-92
2022/01/19 11:05:13;;;;;;;1.43;1.33;;;9.30;99.90;;;;;;6209372;23;20181;-92
2022/01/19 11:07:40;;;;;;;9.43;3.97;;;9.20;99.90;;;;;;6159305;23;20818;-92
2022/01/19 11:10:18;;;;;;;3.00;2.77;;;9.10;99.90;;;;;;6184179;23;20234;-92
2022/01/19 11:12:46;;;;;;;4.00;1.73;;;9.00;99.90;;;;;;6210083;23;20197;-92
2022/01/19 11:15:15;;;;;;;4.17;2.37;;;9.00;99.90;;;;;;6208988;23;20205;-90
2022/01/19 11:17:41;;;;;;;7.63;2.57;;;8.90;99.90;;;;;;6208647;23;20181;-91
2022/01/19 11:20:11;;;;;;;3.83;3.53;;;8.80;99.90;;;;;;6211217;23;20150;-90
2022/01/19 11:23:13;;;;;;;1.80;1.73;;;8.70;99.90;;;;;;6210891;23;20208;-91
2022/01/19 11:26:05;;;;;;;5.83;3.27;;;8.70;99.90;;;;;;6210777;23;20220;-90
2022/01/19 11:28:38;;;;;;;3.63;1.80;;;8.60;99.90;;;;;;6210991;23;20284;-90
2022/01/19 11:31:14;;;;;;;3.43;2.83;;;8.60;99.90;;;;;;6210990;23;20201;-91
2022/01/19 11:33:51;;;;;;;2.80;2.57;;;8.70;99.90;;;;;;6210423;23;20728;-90
2022/01/19 11:36:31;;;;;;;3.60;3.30;;;8.60;99.90;;;;;;6210168;23;20194;-90
2022/01/19 11:39:05;;;;;;;3.47;3.17;;;8.60;99.90;;;;;;6211552;23;20205;-89
2022/01/19 11:41:44;;;;;;;7.10;2.03;;;8.60;99.90;;;;;;6210327;23;20147;-91
2022/01/19 11:44:30;;;;;;;3.80;2.73;;;8.60;99.90;;;;;;6209895;23;20275;-91
2022/01/19 11:46:59;;;;;;;4.10;3.03;;;8.50;99.90;;;;;;6208348;23;20651;-89
2022/01/19 11:49:43;;;;;;;4.10;1.73;;;8.50;99.90;;;;;;6184874;23;20206;-89
2022/01/19 11:52:09;;;;;;;10.93;1.83;;;8.50;99.90;;;;;;6209684;23;20264;-89
2022/01/19 11:54:35;;;;;;;6.27;1.70;;;8.50;99.90;;;;;;6184507;23;20273;-89
2022/01/19 11:57:06;;;;;;;4.83;2.23;;;8.50;99.90;;;;;;6184893;23;20300;-90
2022/01/19 11:59:57;;;;;;;9.37;2.20;;;8.50;99.90;;;;;;6210555;23;20158;-91
2022/01/19 12:02:23;;;;;;;3.03;2.47;;;8.50;99.90;;;;;;6213005;23;20194;-94
2022/01/19 12:04:59;;;;;;;3.80;3.17;;;8.50;99.90;;;;;;6210269;23;20194;-93
2022/01/19 12:07:36;;;;;;;4.73;2.13;;;8.50;99.90;;;;;;6210895;23;20717;-93
2022/01/19 12:10:03;;;;;;;6.80;2.23;;;8.50;99.90;;;;;;6210221;23;20228;-92
2022/01/19 12:12:33;;;;;;;2.23;1.93;;;8.70;99.90;;;;;;6184952;23;20201;-92
2022/01/19 12:15:04;;;;;;;11.33;3.57;;;8.80;99.90;;;;;;6160240;23;20199;-94
2022/01/19 12:17:55;;;;;;;5.00;2.47;;;9.00;99.90;;;;;;6159918;23;20174;-93
2022/01/19 12:20:45;;;;;;;4.93;1.93;;;9.10;99.90;;;;;;6182382;23;20229;-92
2022/01/19 12:23:29;;;;;;;4.17;1.73;;;9.00;99.90;;;;;;6207181;23;20714;-92
2022/01/19 12:25:56;;;;;;;3.80;2.17;;;9.00;99.90;;;;;;6209295;23;20284;-95
2022/01/19 12:28:44;;;;;;;3.80;2.53;;;9.00;99.90;;;;;;6209884;23;20269;-91
2022/01/19 12:31:22;;;;;;;2.23;2.03;;;9.00;99.90;;;;;;6209218;23;20202;-91
2022/01/19 12:34:23;;;;;;;11.80;3.87;;;9.10;99.90;;;;;;6209566;23;20202;-92
2022/01/19 12:36:55;;;;;;;8.67;4.73;;;9.10;99.90;;;;;;6209952;23;20268;-92
2022/01/19 12:39:27;;;;;;;9.33;4.60;;;9.10;99.90;;;;;;6209858;23;20272;-91
2022/01/19 12:41:55;;;;;;;2.17;1.70;;;9.10;99.90;;;;;;6209927;23;20158;-92
2022/01/19 12:44:42;;;;;;;6.93;3.03;;;9.10;99.90;;;;;;6209819;23;20285;-91
2022/01/19 12:50:10;;;;;;;3.03;2.20;;;9.00;99.90;;;;;;6211262;23;20228;-90
2022/01/19 12:52:43;;;;;;;3.73;2.63;;;9.00;99.90;;;;;;6209368;23;20193;-90
2022/01/19 12:55:25;;;;;;;3.80;2.27;;;8.90;99.90;;;;;;6209424;23;20243;-90
2022/01/19 12:57:51;;;;;;;6.53;1.87;;;8.90;99.90;;;;;;6209261;23;20202;-90
2022/01/19 13:00:30;;;;;;;4.83;2.80;;;8.80;99.90;;;;;;6159780;23;20357;-90
2022/01/19 13:02:59;;;;;;;9.17;1.27;;;8.80;99.90;;;;;;6209585;23;20265;-90
2022/01/19 13:05:30;;;;;;;1.33;1.20;;;8.80;99.90;;;;;;6209701;23;20154;-91
2022/01/19 13:08:01;;;;;;;5.73;3.77;;;8.70;99.90;;;;;;6185458;23;20706;-90
2022/01/19 13:10:45;;;;;;;1.90;1.80;;;8.80;99.90;;;;;;6184979;23;20219;-91
2022/01/19 13:13:13;;;;;;;5.77;2.00;;;8.70;99.90;;;;;;6208980;23;20202;-91
2022/01/19 13:15:49;;;;;;;2.20;1.60;;;8.70;99.90;;;;;;6209021;23;20785;-91
2022/01/19 13:18:18;;;;;;;2.80;2.07;;;8.70;99.90;;;;;;6209312;23;20697;-92
2022/01/19 13:20:52;;;;;;;5.97;2.93;;;8.60;99.90;;;;;;6209257;23;20158;-90
2022/01/19 13:23:20;;;;;;;3.20;1.40;;;8.60;99.90;;;;;;6210702;23;20184;-96
2022/01/19 13:26:00;;;;;;;1.77;1.67;;;8.50;99.90;;;;;;6211895;23;20213;-96
2022/01/19 13:28:31;;;;;;;2.33;2.13;;;8.50;99.90;;;;;;6188051;23;20193;-95
2022/01/19 13:31:12;;;;;;;2.83;2.63;;;8.50;99.90;;;;;;6211038;23;20202;-95
2022/01/19 13:33:40;;;;;;;3.13;1.70;;;8.50;99.90;;;;;;6218408;23;20205;-93
2022/01/19 13:36:07;;;;;;;4.17;2.43;;;8.60;99.90;;;;;;6162943;23;20196;-93
2022/01/19 13:38:36;;;;;;;2.63;2.17;;;8.60;99.90;;;;;;6209291;23;20186;-91
2022/01/19 13:41:10;;;;;;;3.67;2.67;;;8.60;99.90;;;;;;6209142;23;20185;-92
2022/01/19 13:43:38;;;;;;;7.50;1.13;;;8.60;99.90;;;;;;6208398;23;20643;-91
2022/01/19 13:46:17;;;;;;;2.00;1.83;;;8.50;99.90;;;;;;6208294;23;20210;-93
2022/01/19 13:48:45;;;;;;;4.67;2.50;;;8.50;99.90;;;;;;6163263;23;20261;-91
2022/01/19 13:51:14;;;;;;;17.30;3.80;;;8.60;99.90;;;;;;6209842;23;20654;-92
2022/01/19 13:53:46;;;;;;;3.17;2.87;;;8.60;99.90;;;;;;6207956;23;20240;-91
2022/01/19 13:56:14;;;;;;;3.93;1.93;;;8.60;99.90;;;;;;6209305;23;20229;-91
2022/01/19 13:58:46;;;;;;;1.60;1.50;;;8.60;99.90;;;;;;6209345;23;20228;-91
2022/01/19 14:01:19;;;;;;;5.27;2.57;;;8.60;99.90;;;;;;6208544;23;20198;-91
2022/01/19 14:03:46;;;;;;;5.37;2.50;;;8.60;99.90;;;;;;6208545;23;20190;-92
2022/01/19 14:06:27;;;;;;;21.03;7.10;;;8.70;99.90;;;;;;6208354;23;20194;-90
2022/01/19 14:09:14;;;;;;;2.20;2.07;;;8.70;99.90;;;;;;6183991;23;20146;-92
2022/01/19 14:11:45;;;;;;;5.80;1.70;;;8.70;99.90;;;;;;6208733;23;20575;-93
2022/01/19 14:14:23;;;;;;;3.70;2.70;;;8.70;99.90;;;;;;6209185;23;20150;-91
2022/01/19 14:16:50;;;;;;;2.37;2.00;;;8.70;99.90;;;;;;6208315;23;20277;-90
2022/01/19 14:19:31;;;;;;;1.27;1.17;;;8.70;99.90;;;;;;6182798;23;20209;-91
2022/01/19 14:22:09;;;;;;;3.77;1.83;;;8.70;99.90;;;;;;6208334;23;20204;-92
2022/01/19 14:24:41;;;;;;;2.17;1.23;;;8.80;99.90;;;;;;6208016;23;20627;-92
2022/01/19 14:27:11;;;;;;;5.57;2.00;;;8.80;99.90;;;;;;6208357;23;20194;-92
2022/01/19 14:29:58;;;;;;;5.10;2.60;;;8.80;99.90;;;;;;6183638;23;20670;-92